sensor_id;sensor_type;location;lat;lon;timestamp;P1;durP1;ratioP1;P2;durP2;ratioP2
57241;SDS011;43095;53.302;5.786;2023-09-19T00:00:44;13.18;;;2.10;;
57241;SDS011;43095;53.302;5.786;2023-09-19T00:03:14;12.68;;;2.30;;
57241;SDS011;43095;53.302;5.786;2023-09-19T00:05:42;9.63;;;1.95;;
57241;SDS011;43095;53.302;5.786;2023-09-19T00:08:13;9.00;;;1.75;;
57241;SDS011;43095;53.302;5.786;2023-09-19T00:10:41;13.73;;;2.97;;
57241;SDS011;43095;53.302;5.786;2023-09-19T00:13:09;15.00;;;3.28;;
57241;SDS011;43095;53.302;5.786;2023-09-19T00:15:44;10.07;;;2.85;;
57241;SDS011;43095;53.302;5.786;2023-09-19T00:18:20;9.75;;;2.10;;
57241;SDS011;43095;53.302;5.786;2023-09-19T00:20:49;9.98;;;2.10;;
57241;SDS011;43095;53.302;5.786;2023-09-19T00:23:18;10.45;;;2.53;;
57241;SDS011;43095;53.302;5.786;2023-09-19T00:25:47;11.10;;;1.90;;
57241;SDS011;43095;53.302;5.786;2023-09-19T00:28:15;12.23;;;3.42;;
57241;SDS011;43095;53.302;5.786;2023-09-19T00:30:44;12.40;;;1.90;;
57241;SDS011;43095;53.302;5.786;2023-09-19T00:33:21;8.68;;;2.38;;
57241;SDS011;43095;53.302;5.786;2023-09-19T00:35:49;11.20;;;1.80;;
57241;SDS011;43095;53.302;5.786;2023-09-19T00:38:21;11.55;;;1.63;;
57241;SDS011;43095;53.302;5.786;2023-09-19T00:40:53;9.77;;;2.00;;
57241;SDS011;43095;53.302;5.786;2023-09-19T00:43:24;8.20;;;1.85;;
57241;SDS011;43095;53.302;5.786;2023-09-19T00:45:55;7.68;;;2.03;;
57241;SDS011;43095;53.302;5.786;2023-09-19T00:48:24;10.55;;;1.98;;
57241;SDS011;43095;53.302;5.786;2023-09-19T00:50:54;10.55;;;2.15;;
57241;SDS011;43095;53.302;5.786;2023-09-19T00:53:24;19.50;;;3.08;;
57241;SDS011;43095;53.302;5.786;2023-09-19T00:55:53;10.43;;;2.25;;
57241;SDS011;43095;53.302;5.786;2023-09-19T00:58:22;14.70;;;2.80;;
57241;SDS011;43095;53.302;5.786;2023-09-19T01:00:50;12.35;;;2.63;;
57241;SDS011;43095;53.302;5.786;2023-09-19T01:03:19;9.48;;;1.92;;
57241;SDS011;43095;53.302;5.786;2023-09-19T01:05:48;9.70;;;1.95;;
57241;SDS011;43095;53.302;5.786;2023-09-19T01:08:17;13.70;;;2.38;;
57241;SDS011;43095;53.302;5.786;2023-09-19T01:26:05;8.90;;;2.53;;
57241;SDS011;43095;53.302;5.786;2023-09-19T01:31:57;6.85;;;2.25;;
57241;SDS011;43095;53.302;5.786;2023-09-19T01:34:45;10.20;;;1.90;;
57241;SDS011;43095;53.302;5.786;2023-09-19T01:37:24;9.95;;;1.90;;
57241;SDS011;43095;53.302;5.786;2023-09-19T01:39:59;11.20;;;2.65;;
57241;SDS011;43095;53.302;5.786;2023-09-19T01:51:20;11.65;;;2.15;;
57241;SDS011;43095;53.302;5.786;2023-09-19T01:54:00;11.65;;;2.88;;
57241;SDS011;43095;53.302;5.786;2023-09-19T01:56:49;13.95;;;1.88;;
57241;SDS011;43095;53.302;5.786;2023-09-19T01:59:35;11.82;;;1.73;;
57241;SDS011;43095;53.302;5.786;2023-09-19T02:02:09;17.33;;;2.22;;
57241;SDS011;43095;53.302;5.786;2023-09-19T02:04:37;16.98;;;2.92;;
57241;SDS011;43095;53.302;5.786;2023-09-19T02:07:04;10.82;;;2.13;;
57241;SDS011;43095;53.302;5.786;2023-09-19T02:09:39;10.43;;;1.38;;
57241;SDS011;43095;53.302;5.786;2023-09-19T02:12:09;9.82;;;1.90;;
57241;SDS011;43095;53.302;5.786;2023-09-19T02:14:36;14.68;;;3.20;;
57241;SDS011;43095;53.302;5.786;2023-09-19T02:17:04;10.98;;;1.70;;
57241;SDS011;43095;53.302;5.786;2023-09-19T02:19:36;15.45;;;2.13;;
57241;SDS011;43095;53.302;5.786;2023-09-19T02:22:05;14.32;;;2.47;;
57241;SDS011;43095;53.302;5.786;2023-09-19T02:24:34;11.98;;;1.98;;
57241;SDS011;43095;53.302;5.786;2023-09-19T02:27:02;11.27;;;2.10;;
57241;SDS011;43095;53.302;5.786;2023-09-19T02:29:31;13.40;;;2.75;;
57241;SDS011;43095;53.302;5.786;2023-09-19T02:32:01;11.93;;;2.08;;
57241;SDS011;43095;53.302;5.786;2023-09-19T02:34:30;12.30;;;1.95;;
57241;SDS011;43095;53.302;5.786;2023-09-19T02:36:59;8.32;;;1.92;;
57241;SDS011;43095;53.302;5.786;2023-09-19T02:39:26;12.50;;;2.30;;
57241;SDS011;43095;53.302;5.786;2023-09-19T02:41:54;10.65;;;2.05;;
57241;SDS011;43095;53.302;5.786;2023-09-19T02:44:21;9.50;;;2.00;;
57241;SDS011;43095;53.302;5.786;2023-09-19T02:46:50;10.75;;;2.20;;
57241;SDS011;43095;53.302;5.786;2023-09-19T02:49:17;9.43;;;1.90;;
57241;SDS011;43095;53.302;5.786;2023-09-19T02:51:45;13.18;;;2.33;;
57241;SDS011;43095;53.302;5.786;2023-09-19T02:54:14;15.32;;;2.17;;
57241;SDS011;43095;53.302;5.786;2023-09-19T02:56:42;11.52;;;2.08;;
57241;SDS011;43095;53.302;5.786;2023-09-19T02:59:09;9.95;;;2.25;;
57241;SDS011;43095;53.302;5.786;2023-09-19T03:01:37;13.48;;;1.83;;
57241;SDS011;43095;53.302;5.786;2023-09-19T03:04:05;9.77;;;1.77;;
57241;SDS011;43095;53.302;5.786;2023-09-19T03:06:37;10.75;;;2.03;;
57241;SDS011;43095;53.302;5.786;2023-09-19T03:09:07;6.30;;;1.40;;
57241;SDS011;43095;53.302;5.786;2023-09-19T03:11:38;10.48;;;1.83;;
57241;SDS011;43095;53.302;5.786;2023-09-19T03:14:06;7.15;;;1.90;;
57241;SDS011;43095;53.302;5.786;2023-09-19T03:16:34;13.55;;;2.40;;
57241;SDS011;43095;53.302;5.786;2023-09-19T03:19:04;13.75;;;1.95;;
57241;SDS011;43095;53.302;5.786;2023-09-19T03:21:32;8.35;;;1.52;;
57241;SDS011;43095;53.302;5.786;2023-09-19T03:23:59;12.40;;;1.80;;
57241;SDS011;43095;53.302;5.786;2023-09-19T03:26:26;11.77;;;2.28;;
57241;SDS011;43095;53.302;5.786;2023-09-19T03:28:53;11.02;;;1.95;;
57241;SDS011;43095;53.302;5.786;2023-09-19T03:31:21;12.88;;;2.42;;
57241;SDS011;43095;53.302;5.786;2023-09-19T03:33:48;13.27;;;2.70;;
57241;SDS011;43095;53.302;5.786;2023-09-19T03:36:15;10.40;;;1.98;;
57241;SDS011;43095;53.302;5.786;2023-09-19T03:38:42;12.20;;;2.63;;
57241;SDS011;43095;53.302;5.786;2023-09-19T03:41:14;5.57;;;1.42;;
57241;SDS011;43095;53.302;5.786;2023-09-19T03:43:47;9.75;;;2.05;;
57241;SDS011;43095;53.302;5.786;2023-09-19T03:46:14;10.05;;;2.10;;
57241;SDS011;43095;53.302;5.786;2023-09-19T03:48:43;9.30;;;1.83;;
57241;SDS011;43095;53.302;5.786;2023-09-19T03:51:10;10.85;;;2.05;;
57241;SDS011;43095;53.302;5.786;2023-09-19T03:53:37;14.30;;;2.10;;
57241;SDS011;43095;53.302;5.786;2023-09-19T03:56:05;12.32;;;2.58;;
57241;SDS011;43095;53.302;5.786;2023-09-19T03:58:32;9.73;;;1.90;;
57241;SDS011;43095;53.302;5.786;2023-09-19T04:01:04;11.98;;;3.13;;
57241;SDS011;43095;53.302;5.786;2023-09-19T04:03:33;11.13;;;2.50;;
57241;SDS011;43095;53.302;5.786;2023-09-19T04:06:12;7.40;;;1.75;;
57241;SDS011;43095;53.302;5.786;2023-09-19T04:08:43;12.40;;;2.50;;
57241;SDS011;43095;53.302;5.786;2023-09-19T04:11:11;9.10;;;2.38;;
57241;SDS011;43095;53.302;5.786;2023-09-19T04:13:38;13.73;;;2.30;;
57241;SDS011;43095;53.302;5.786;2023-09-19T04:16:06;10.45;;;2.33;;
57241;SDS011;43095;53.302;5.786;2023-09-19T04:18:37;14.43;;;1.60;;
57241;SDS011;43095;53.302;5.786;2023-09-19T04:21:07;12.75;;;2.53;;
57241;SDS011;43095;53.302;5.786;2023-09-19T04:23:34;16.50;;;2.25;;
57241;SDS011;43095;53.302;5.786;2023-09-19T04:26:02;14.90;;;2.60;;
57241;SDS011;43095;53.302;5.786;2023-09-19T04:28:33;13.73;;;2.38;;
57241;SDS011;43095;53.302;5.786;2023-09-19T04:31:01;11.35;;;2.40;;
57241;SDS011;43095;53.302;5.786;2023-09-19T04:33:28;8.30;;;2.47;;
57241;SDS011;43095;53.302;5.786;2023-09-19T04:35:56;13.00;;;2.17;;
57241;SDS011;43095;53.302;5.786;2023-09-19T04:38:33;13.25;;;2.33;;
57241;SDS011;43095;53.302;5.786;2023-09-19T04:41:00;13.27;;;2.45;;
57241;SDS011;43095;53.302;5.786;2023-09-19T04:43:29;17.70;;;2.83;;
57241;SDS011;43095;53.302;5.786;2023-09-19T04:45:57;11.13;;;2.75;;
57241;SDS011;43095;53.302;5.786;2023-09-19T04:48:27;17.00;;;3.22;;
57241;SDS011;43095;53.302;5.786;2023-09-19T04:50:56;12.45;;;2.10;;
57241;SDS011;43095;53.302;5.786;2023-09-19T04:53:24;7.28;;;1.75;;
57241;SDS011;43095;53.302;5.786;2023-09-19T04:55:51;12.70;;;2.33;;
57241;SDS011;43095;53.302;5.786;2023-09-19T04:58:19;13.40;;;3.20;;
57241;SDS011;43095;53.302;5.786;2023-09-19T05:00:46;14.18;;;2.95;;
57241;SDS011;43095;53.302;5.786;2023-09-19T05:03:14;14.13;;;2.83;;
57241;SDS011;43095;53.302;5.786;2023-09-19T05:05:41;10.88;;;2.10;;
57241;SDS011;43095;53.302;5.786;2023-09-19T05:08:09;10.40;;;2.15;;
57241;SDS011;43095;53.302;5.786;2023-09-19T05:10:36;17.88;;;2.42;;
57241;SDS011;43095;53.302;5.786;2023-09-19T05:13:04;17.50;;;3.60;;
57241;SDS011;43095;53.302;5.786;2023-09-19T05:15:33;13.02;;;2.60;;
57241;SDS011;43095;53.302;5.786;2023-09-19T05:18:02;11.88;;;2.25;;
57241;SDS011;43095;53.302;5.786;2023-09-19T05:20:30;10.05;;;2.92;;
57241;SDS011;43095;53.302;5.786;2023-09-19T05:23:00;16.77;;;2.60;;
57241;SDS011;43095;53.302;5.786;2023-09-19T05:25:31;13.32;;;2.63;;
57241;SDS011;43095;53.302;5.786;2023-09-19T05:27:59;13.55;;;1.98;;
57241;SDS011;43095;53.302;5.786;2023-09-19T05:30:30;13.00;;;3.42;;
57241;SDS011;43095;53.302;5.786;2023-09-19T05:33:02;12.38;;;2.88;;
57241;SDS011;43095;53.302;5.786;2023-09-19T05:35:31;12.65;;;2.00;;
57241;SDS011;43095;53.302;5.786;2023-09-19T05:37:59;12.55;;;2.25;;
57241;SDS011;43095;53.302;5.786;2023-09-19T05:40:27;13.48;;;2.03;;
57241;SDS011;43095;53.302;5.786;2023-09-19T05:42:54;14.02;;;1.92;;
57241;SDS011;43095;53.302;5.786;2023-09-19T05:45:21;8.57;;;1.75;;
57241;SDS011;43095;53.302;5.786;2023-09-19T05:47:49;12.88;;;2.42;;
57241;SDS011;43095;53.302;5.786;2023-09-19T05:50:22;12.05;;;3.33;;
57241;SDS011;43095;53.302;5.786;2023-09-19T05:52:51;14.32;;;2.63;;
57241;SDS011;43095;53.302;5.786;2023-09-19T05:55:20;10.45;;;2.00;;
57241;SDS011;43095;53.302;5.786;2023-09-19T05:57:52;12.77;;;2.40;;
57241;SDS011;43095;53.302;5.786;2023-09-19T06:00:20;12.45;;;2.00;;
57241;SDS011;43095;53.302;5.786;2023-09-19T06:02:54;13.68;;;2.78;;
57241;SDS011;43095;53.302;5.786;2023-09-19T06:05:26;15.35;;;2.25;;
57241;SDS011;43095;53.302;5.786;2023-09-19T06:07:56;15.88;;;2.92;;
57241;SDS011;43095;53.302;5.786;2023-09-19T06:10:27;11.02;;;1.75;;
57241;SDS011;43095;53.302;5.786;2023-09-19T06:12:55;10.73;;;1.83;;
57241;SDS011;43095;53.302;5.786;2023-09-19T06:15:24;12.23;;;2.35;;
57241;SDS011;43095;53.302;5.786;2023-09-19T06:17:53;12.77;;;2.30;;
57241;SDS011;43095;53.302;5.786;2023-09-19T06:20:22;12.07;;;2.70;;
57241;SDS011;43095;53.302;5.786;2023-09-19T06:22:51;17.63;;;3.03;;
57241;SDS011;43095;53.302;5.786;2023-09-19T06:25:20;13.30;;;2.40;;
57241;SDS011;43095;53.302;5.786;2023-09-19T06:27:49;13.82;;;1.80;;
57241;SDS011;43095;53.302;5.786;2023-09-19T06:30:24;12.30;;;2.95;;
57241;SDS011;43095;53.302;5.786;2023-09-19T06:32:56;14.77;;;2.38;;
57241;SDS011;43095;53.302;5.786;2023-09-19T06:35:24;15.93;;;3.13;;
57241;SDS011;43095;53.302;5.786;2023-09-19T06:37:53;16.55;;;2.88;;
57241;SDS011;43095;53.302;5.786;2023-09-19T06:40:20;17.10;;;2.45;;
57241;SDS011;43095;53.302;5.786;2023-09-19T06:42:49;21.75;;;4.18;;
57241;SDS011;43095;53.302;5.786;2023-09-19T06:45:19;17.02;;;3.33;;
57241;SDS011;43095;53.302;5.786;2023-09-19T06:47:49;18.48;;;2.75;;
57241;SDS011;43095;53.302;5.786;2023-09-19T06:50:18;12.13;;;2.90;;
57241;SDS011;43095;53.302;5.786;2023-09-19T06:52:53;17.95;;;3.13;;
57241;SDS011;43095;53.302;5.786;2023-09-19T06:55:22;13.00;;;2.47;;
57241;SDS011;43095;53.302;5.786;2023-09-19T06:57:55;13.52;;;2.58;;
57241;SDS011;43095;53.302;5.786;2023-09-19T07:00:22;17.95;;;3.38;;
57241;SDS011;43095;53.302;5.786;2023-09-19T07:03:00;18.63;;;3.08;;
57241;SDS011;43095;53.302;5.786;2023-09-19T07:05:32;13.13;;;2.47;;
57241;SDS011;43095;53.302;5.786;2023-09-19T07:08:06;13.57;;;2.45;;
57241;SDS011;43095;53.302;5.786;2023-09-19T07:10:37;14.73;;;2.55;;
57241;SDS011;43095;53.302;5.786;2023-09-19T07:13:07;18.35;;;2.83;;
57241;SDS011;43095;53.302;5.786;2023-09-19T07:15:38;13.48;;;3.00;;
57241;SDS011;43095;53.302;5.786;2023-09-19T07:18:08;16.15;;;2.80;;
57241;SDS011;43095;53.302;5.786;2023-09-19T07:20:38;10.98;;;2.35;;
57241;SDS011;43095;53.302;5.786;2023-09-19T07:23:05;14.95;;;2.65;;
57241;SDS011;43095;53.302;5.786;2023-09-19T07:25:32;11.35;;;2.38;;
57241;SDS011;43095;53.302;5.786;2023-09-19T07:28:02;14.50;;;2.67;;
57241;SDS011;43095;53.302;5.786;2023-09-19T07:30:29;13.35;;;2.47;;
57241;SDS011;43095;53.302;5.786;2023-09-19T07:32:57;18.52;;;2.72;;
57241;SDS011;43095;53.302;5.786;2023-09-19T07:35:25;13.68;;;2.30;;
57241;SDS011;43095;53.302;5.786;2023-09-19T07:37:52;18.60;;;3.30;;
57241;SDS011;43095;53.302;5.786;2023-09-19T07:40:19;15.85;;;2.42;;
57241;SDS011;43095;53.302;5.786;2023-09-19T07:42:47;11.40;;;2.30;;
57241;SDS011;43095;53.302;5.786;2023-09-19T07:45:15;12.95;;;3.05;;
57241;SDS011;43095;53.302;5.786;2023-09-19T07:47:46;14.35;;;2.58;;
57241;SDS011;43095;53.302;5.786;2023-09-19T07:50:19;12.63;;;2.67;;
57241;SDS011;43095;53.302;5.786;2023-09-19T07:52:47;12.75;;;3.08;;
57241;SDS011;43095;53.302;5.786;2023-09-19T07:55:19;16.33;;;2.75;;
57241;SDS011;43095;53.302;5.786;2023-09-19T07:57:50;18.02;;;3.05;;
57241;SDS011;43095;53.302;5.786;2023-09-19T08:00:20;21.23;;;2.90;;
57241;SDS011;43095;53.302;5.786;2023-09-19T08:02:48;14.98;;;2.30;;
57241;SDS011;43095;53.302;5.786;2023-09-19T08:05:24;13.65;;;2.70;;
57241;SDS011;43095;53.302;5.786;2023-09-19T08:07:51;12.13;;;2.50;;
57241;SDS011;43095;53.302;5.786;2023-09-19T08:10:20;17.20;;;2.90;;
57241;SDS011;43095;53.302;5.786;2023-09-19T08:12:48;17.35;;;2.85;;
57241;SDS011;43095;53.302;5.786;2023-09-19T08:15:22;11.00;;;2.13;;
57241;SDS011;43095;53.302;5.786;2023-09-19T08:17:49;14.85;;;2.80;;
57241;SDS011;43095;53.302;5.786;2023-09-19T08:20:17;14.52;;;3.30;;
57241;SDS011;43095;53.302;5.786;2023-09-19T08:22:52;12.18;;;2.33;;
57241;SDS011;43095;53.302;5.786;2023-09-19T08:25:23;12.68;;;2.92;;
57241;SDS011;43095;53.302;5.786;2023-09-19T08:27:52;14.25;;;2.65;;
57241;SDS011;43095;53.302;5.786;2023-09-19T08:30:19;9.95;;;2.38;;
57241;SDS011;43095;53.302;5.786;2023-09-19T08:32:57;14.20;;;3.00;;
57241;SDS011;43095;53.302;5.786;2023-09-19T08:35:28;12.20;;;2.65;;
57241;SDS011;43095;53.302;5.786;2023-09-19T08:37:55;12.13;;;2.42;;
57241;SDS011;43095;53.302;5.786;2023-09-19T08:40:23;15.48;;;3.50;;
57241;SDS011;43095;53.302;5.786;2023-09-19T08:42:52;12.00;;;2.35;;
57241;SDS011;43095;53.302;5.786;2023-09-19T08:45:22;18.92;;;3.00;;
57241;SDS011;43095;53.302;5.786;2023-09-19T08:50:56;13.10;;;3.20;;
57241;SDS011;43095;53.302;5.786;2023-09-19T08:56:25;14.80;;;2.83;;
57241;SDS011;43095;53.302;5.786;2023-09-19T08:58:57;14.13;;;4.18;;
57241;SDS011;43095;53.302;5.786;2023-09-19T09:01:28;15.90;;;2.90;;
57241;SDS011;43095;53.302;5.786;2023-09-19T09:03:56;14.73;;;2.67;;
57241;SDS011;43095;53.302;5.786;2023-09-19T09:06:24;14.13;;;2.78;;
57241;SDS011;43095;53.302;5.786;2023-09-19T09:08:54;18.52;;;3.17;;
57241;SDS011;43095;53.302;5.786;2023-09-19T09:11:22;15.38;;;3.13;;
57241;SDS011;43095;53.302;5.786;2023-09-19T09:13:51;11.00;;;2.92;;
57241;SDS011;43095;53.302;5.786;2023-09-19T09:16:18;23.70;;;3.80;;
57241;SDS011;43095;53.302;5.786;2023-09-19T09:18:46;13.82;;;2.45;;
57241;SDS011;43095;53.302;5.786;2023-09-19T09:21:24;18.30;;;3.40;;
57241;SDS011;43095;53.302;5.786;2023-09-19T09:23:52;13.98;;;2.88;;
57241;SDS011;43095;53.302;5.786;2023-09-19T09:31:46;12.25;;;2.95;;
57241;SDS011;43095;53.302;5.786;2023-09-19T09:34:15;16.23;;;3.45;;
57241;SDS011;43095;53.302;5.786;2023-09-19T09:36:42;16.45;;;3.05;;
57241;SDS011;43095;53.302;5.786;2023-09-19T09:39:27;12.30;;;2.78;;
57241;SDS011;43095;53.302;5.786;2023-09-19T09:41:58;12.07;;;3.00;;
57241;SDS011;43095;53.302;5.786;2023-09-19T09:44:25;15.88;;;3.63;;
57241;SDS011;43095;53.302;5.786;2023-09-19T09:49:47;15.93;;;3.35;;
57241;SDS011;43095;53.302;5.786;2023-09-19T09:52:21;17.80;;;3.70;;
57241;SDS011;43095;53.302;5.786;2023-09-19T09:55:00;17.83;;;3.67;;
57241;SDS011;43095;53.302;5.786;2023-09-19T09:57:32;14.23;;;2.63;;
57241;SDS011;43095;53.302;5.786;2023-09-19T10:00:00;11.60;;;2.90;;
57241;SDS011;43095;53.302;5.786;2023-09-19T10:02:37;14.65;;;3.80;;
57241;SDS011;43095;53.302;5.786;2023-09-19T10:05:16;19.15;;;3.83;;
57241;SDS011;43095;53.302;5.786;2023-09-19T10:07:50;17.13;;;3.53;;
57241;SDS011;43095;53.302;5.786;2023-09-19T10:10:35;10.55;;;2.55;;
57241;SDS011;43095;53.302;5.786;2023-09-19T10:13:12;17.48;;;3.45;;
57241;SDS011;43095;53.302;5.786;2023-09-19T10:15:46;17.98;;;3.80;;
57241;SDS011;43095;53.302;5.786;2023-09-19T10:18:19;9.63;;;2.53;;
57241;SDS011;43095;53.302;5.786;2023-09-19T10:20:56;13.57;;;3.67;;
57241;SDS011;43095;53.302;5.786;2023-09-19T10:23:23;18.23;;;4.40;;
57241;SDS011;43095;53.302;5.786;2023-09-19T10:25:55;15.52;;;3.28;;
57241;SDS011;43095;53.302;5.786;2023-09-19T10:28:25;10.27;;;2.67;;
57241;SDS011;43095;53.302;5.786;2023-09-19T10:30:55;17.23;;;3.25;;
57241;SDS011;43095;53.302;5.786;2023-09-19T10:33:24;12.32;;;2.65;;
57241;SDS011;43095;53.302;5.786;2023-09-19T10:35:53;14.50;;;3.25;;
57241;SDS011;43095;53.302;5.786;2023-09-19T10:38:23;14.52;;;3.42;;
57241;SDS011;43095;53.302;5.786;2023-09-19T10:40:53;18.13;;;3.20;;
57241;SDS011;43095;53.302;5.786;2023-09-19T10:43:29;15.27;;;3.53;;
57241;SDS011;43095;53.302;5.786;2023-09-19T10:46:08;20.15;;;3.72;;
57241;SDS011;43095;53.302;5.786;2023-09-19T10:48:38;18.00;;;3.28;;
57241;SDS011;43095;53.302;5.786;2023-09-19T10:51:11;12.73;;;2.60;;
57241;SDS011;43095;53.302;5.786;2023-09-19T10:56:21;15.70;;;3.03;;
57241;SDS011;43095;53.302;5.786;2023-09-19T10:59:15;14.25;;;3.35;;
57241;SDS011;43095;53.302;5.786;2023-09-19T11:01:48;15.52;;;3.22;;
57241;SDS011;43095;53.302;5.786;2023-09-19T11:07:02;14.32;;;3.88;;
57241;SDS011;43095;53.302;5.786;2023-09-19T11:09:50;17.08;;;3.45;;
57241;SDS011;43095;53.302;5.786;2023-09-19T11:21:51;15.70;;;3.83;;
57241;SDS011;43095;53.302;5.786;2023-09-19T11:27:08;14.13;;;3.92;;
57241;SDS011;43095;53.302;5.786;2023-09-19T11:29:40;14.32;;;3.33;;
57241;SDS011;43095;53.302;5.786;2023-09-19T11:32:08;20.58;;;4.78;;
57241;SDS011;43095;53.302;5.786;2023-09-19T11:40:04;14.25;;;4.10;;
57241;SDS011;43095;53.302;5.786;2023-09-19T11:42:44;20.45;;;4.50;;
57241;SDS011;43095;53.302;5.786;2023-09-19T11:48:07;17.00;;;3.55;;
57241;SDS011;43095;53.302;5.786;2023-09-19T11:50:36;18.70;;;4.20;;
57241;SDS011;43095;53.302;5.786;2023-09-19T11:53:04;16.77;;;4.22;;
57241;SDS011;43095;53.302;5.786;2023-09-19T11:55:32;22.77;;;4.97;;
57241;SDS011;43095;53.302;5.786;2023-09-19T11:58:01;25.00;;;4.10;;
57241;SDS011;43095;53.302;5.786;2023-09-19T12:00:28;20.45;;;4.53;;
57241;SDS011;43095;53.302;5.786;2023-09-19T12:02:56;12.05;;;3.50;;
57241;SDS011;43095;53.302;5.786;2023-09-19T12:05:33;21.05;;;3.45;;
57241;SDS011;43095;53.302;5.786;2023-09-19T12:08:01;13.40;;;3.22;;
57241;SDS011;43095;53.302;5.786;2023-09-19T12:10:31;17.13;;;3.90;;
57241;SDS011;43095;53.302;5.786;2023-09-19T12:12:59;19.95;;;4.32;;
57241;SDS011;43095;53.302;5.786;2023-09-19T12:15:27;11.93;;;3.30;;
57241;SDS011;43095;53.302;5.786;2023-09-19T12:18:00;10.65;;;3.00;;
57241;SDS011;43095;53.302;5.786;2023-09-19T12:20:43;12.10;;;2.58;;
57241;SDS011;43095;53.302;5.786;2023-09-19T12:23:16;13.45;;;2.80;;
57241;SDS011;43095;53.302;5.786;2023-09-19T12:25:44;14.13;;;2.47;;
57241;SDS011;43095;53.302;5.786;2023-09-19T12:28:15;10.73;;;2.70;;
57241;SDS011;43095;53.302;5.786;2023-09-19T12:30:43;11.48;;;2.38;;
57241;SDS011;43095;53.302;5.786;2023-09-19T12:33:19;15.90;;;3.25;;
57241;SDS011;43095;53.302;5.786;2023-09-19T12:35:47;15.18;;;3.78;;
57241;SDS011;43095;53.302;5.786;2023-09-19T12:38:27;11.93;;;2.83;;
57241;SDS011;43095;53.302;5.786;2023-09-19T12:40:55;14.23;;;3.47;;
57241;SDS011;43095;53.302;5.786;2023-09-19T12:43:28;10.15;;;2.78;;
57241;SDS011;43095;53.302;5.786;2023-09-19T12:45:59;11.02;;;3.13;;
57241;SDS011;43095;53.302;5.786;2023-09-19T12:48:26;12.00;;;3.00;;
57241;SDS011;43095;53.302;5.786;2023-09-19T12:51:01;13.70;;;3.78;;
57241;SDS011;43095;53.302;5.786;2023-09-19T12:53:40;18.80;;;4.63;;
57241;SDS011;43095;53.302;5.786;2023-09-19T12:56:13;23.83;;;3.78;;
57241;SDS011;43095;53.302;5.786;2023-09-19T13:01:25;8.75;;;2.40;;
57241;SDS011;43095;53.302;5.786;2023-09-19T13:06:48;11.68;;;3.20;;
57241;SDS011;43095;53.302;5.786;2023-09-19T13:09:17;14.25;;;4.03;;
57241;SDS011;43095;53.302;5.786;2023-09-19T13:11:47;12.88;;;3.13;;
57241;SDS011;43095;53.302;5.786;2023-09-19T13:19:43;14.63;;;3.42;;
57241;SDS011;43095;53.302;5.786;2023-09-19T13:22:39;11.38;;;2.95;;
57241;SDS011;43095;53.302;5.786;2023-09-19T13:25:21;12.52;;;3.10;;
57241;SDS011;43095;53.302;5.786;2023-09-19T13:27:49;11.02;;;2.42;;
57241;SDS011;43095;53.302;5.786;2023-09-19T13:30:21;9.52;;;3.35;;
57241;SDS011;43095;53.302;5.786;2023-09-19T13:33:08;12.23;;;2.53;;
57241;SDS011;43095;53.302;5.786;2023-09-19T13:35:40;13.05;;;3.35;;
57241;SDS011;43095;53.302;5.786;2023-09-19T13:38:07;10.10;;;3.05;;
57241;SDS011;43095;53.302;5.786;2023-09-19T13:40:38;13.10;;;2.97;;
57241;SDS011;43095;53.302;5.786;2023-09-19T13:43:08;16.27;;;3.22;;
57241;SDS011;43095;53.302;5.786;2023-09-19T13:45:37;13.40;;;3.13;;
57241;SDS011;43095;53.302;5.786;2023-09-19T13:48:04;12.30;;;2.72;;
57241;SDS011;43095;53.302;5.786;2023-09-19T13:50:32;12.40;;;4.00;;
57241;SDS011;43095;53.302;5.786;2023-09-19T13:53:02;16.05;;;3.53;;
57241;SDS011;43095;53.302;5.786;2023-09-19T13:55:30;11.65;;;3.78;;
57241;SDS011;43095;53.302;5.786;2023-09-19T13:57:57;17.27;;;3.65;;
57241;SDS011;43095;53.302;5.786;2023-09-19T14:00:24;16.38;;;3.83;;
57241;SDS011;43095;53.302;5.786;2023-09-19T14:02:51;15.02;;;3.80;;
57241;SDS011;43095;53.302;5.786;2023-09-19T14:05:19;13.25;;;3.25;;
57241;SDS011;43095;53.302;5.786;2023-09-19T14:07:47;14.18;;;3.60;;
57241;SDS011;43095;53.302;5.786;2023-09-19T14:10:15;16.73;;;4.57;;
57241;SDS011;43095;53.302;5.786;2023-09-19T14:12:44;18.65;;;3.55;;
57241;SDS011;43095;53.302;5.786;2023-09-19T14:15:11;16.08;;;3.97;;
57241;SDS011;43095;53.302;5.786;2023-09-19T14:17:39;15.20;;;3.65;;
57241;SDS011;43095;53.302;5.786;2023-09-19T14:20:12;16.05;;;4.18;;
57241;SDS011;43095;53.302;5.786;2023-09-19T14:22:40;18.55;;;4.22;;
57241;SDS011;43095;53.302;5.786;2023-09-19T14:25:08;15.50;;;3.72;;
57241;SDS011;43095;53.302;5.786;2023-09-19T14:27:35;15.52;;;3.97;;
57241;SDS011;43095;53.302;5.786;2023-09-19T14:30:03;18.35;;;4.13;;
57241;SDS011;43095;53.302;5.786;2023-09-19T14:32:31;17.50;;;4.32;;
57241;SDS011;43095;53.302;5.786;2023-09-19T14:34:59;24.65;;;4.30;;
57241;SDS011;43095;53.302;5.786;2023-09-19T14:37:26;15.15;;;4.32;;
57241;SDS011;43095;53.302;5.786;2023-09-19T14:39:54;22.38;;;4.43;;
57241;SDS011;43095;53.302;5.786;2023-09-19T14:42:22;26.58;;;4.75;;
57241;SDS011;43095;53.302;5.786;2023-09-19T14:44:49;16.60;;;4.53;;
57241;SDS011;43095;53.302;5.786;2023-09-19T14:47:16;20.65;;;5.68;;
57241;SDS011;43095;53.302;5.786;2023-09-19T14:49:43;18.55;;;4.75;;
57241;SDS011;43095;53.302;5.786;2023-09-19T14:52:11;23.83;;;4.97;;
57241;SDS011;43095;53.302;5.786;2023-09-19T14:54:42;23.80;;;5.60;;
57241;SDS011;43095;53.302;5.786;2023-09-19T14:57:09;25.02;;;5.28;;
57241;SDS011;43095;53.302;5.786;2023-09-19T14:59:36;28.13;;;6.05;;
57241;SDS011;43095;53.302;5.786;2023-09-19T15:02:05;23.52;;;4.85;;
57241;SDS011;43095;53.302;5.786;2023-09-19T15:04:33;23.02;;;5.05;;
57241;SDS011;43095;53.302;5.786;2023-09-19T15:07:01;30.23;;;5.18;;
57241;SDS011;43095;53.302;5.786;2023-09-19T15:09:29;26.80;;;5.38;;
57241;SDS011;43095;53.302;5.786;2023-09-19T15:11:58;23.00;;;4.57;;
57241;SDS011;43095;53.302;5.786;2023-09-19T15:14:26;20.40;;;4.50;;
57241;SDS011;43095;53.302;5.786;2023-09-19T15:16:53;25.58;;;5.57;;
57241;SDS011;43095;53.302;5.786;2023-09-19T15:19:21;23.92;;;5.70;;
57241;SDS011;43095;53.302;5.786;2023-09-19T15:21:48;32.97;;;7.13;;
57241;SDS011;43095;53.302;5.786;2023-09-19T15:24:16;32.13;;;6.75;;
57241;SDS011;43095;53.302;5.786;2023-09-19T15:26:44;24.55;;;4.80;;
57241;SDS011;43095;53.302;5.786;2023-09-19T15:29:12;26.17;;;6.25;;
57241;SDS011;43095;53.302;5.786;2023-09-19T15:31:40;32.33;;;7.85;;
57241;SDS011;43095;53.302;5.786;2023-09-19T15:34:07;34.30;;;8.07;;
57241;SDS011;43095;53.302;5.786;2023-09-19T15:36:36;33.15;;;6.30;;
57241;SDS011;43095;53.302;5.786;2023-09-19T15:39:06;32.72;;;5.93;;
57241;SDS011;43095;53.302;5.786;2023-09-19T15:41:35;29.67;;;5.65;;
57241;SDS011;43095;53.302;5.786;2023-09-19T15:44:05;30.83;;;6.13;;
57241;SDS011;43095;53.302;5.786;2023-09-19T15:46:40;32.80;;;7.47;;
57241;SDS011;43095;53.302;5.786;2023-09-19T15:49:08;31.98;;;6.75;;
57241;SDS011;43095;53.302;5.786;2023-09-19T15:51:35;28.58;;;6.03;;
57241;SDS011;43095;53.302;5.786;2023-09-19T15:54:07;35.63;;;6.63;;
57241;SDS011;43095;53.302;5.786;2023-09-19T15:56:37;31.92;;;6.43;;
57241;SDS011;43095;53.302;5.786;2023-09-19T15:59:04;35.25;;;7.38;;
57241;SDS011;43095;53.302;5.786;2023-09-19T16:01:31;24.20;;;5.40;;
57241;SDS011;43095;53.302;5.786;2023-09-19T16:03:59;30.92;;;6.55;;
57241;SDS011;43095;53.302;5.786;2023-09-19T16:06:26;31.45;;;6.78;;
57241;SDS011;43095;53.302;5.786;2023-09-19T16:08:58;30.80;;;6.55;;
57241;SDS011;43095;53.302;5.786;2023-09-19T16:11:26;29.08;;;7.72;;